sensor_id;sensor_type;location;lat;lon;timestamp;pressure;altitude;pressure_sealevel;temperature;humidity
43436;BME280;36399;51.444;-2.018;2024-03-23T00:54:50;99096.56;;;3.15;100.00
43436;BME280;36399;51.444;-2.018;2024-03-23T00:57:16;99064.66;;;3.17;100.00
43436;BME280;36399;51.444;-2.018;2024-03-23T00:59:42;99067.94;;;3.10;100.00
43436;BME280;36399;51.444;-2.018;2024-03-23T01:02:08;99023.31;;;3.27;100.00
43436;BME280;36399;51.444;-2.018;2024-03-23T01:04:34;99012.84;;;3.21;100.00
43436;BME280;36399;51.444;-2.018;2024-03-23T01:07:00;98991.34;;;3.26;100.00
43436;BME280;36399;51.444;-2.018;2024-03-23T01:09:26;98980.94;;;3.25;100.00
43436;BME280;36399;51.444;-2.018;2024-03-23T01:11:52;98951.69;;;3.33;100.00
43436;BME280;36399;51.444;-2.018;2024-03-23T01:14:18;98959.44;;;3.32;100.00
43436;BME280;36399;51.444;-2.018;2024-03-23T01:16:44;98936.94;;;3.31;100.00
43436;BME280;36399;51.444;-2.018;2024-03-23T01:19:10;98939.53;;;3.31;100.00
43436;BME280;36399;51.444;-2.018;2024-03-23T01:21:36;98937.59;;;3.17;100.00
43436;BME280;36399;51.444;-2.018;2024-03-23T01:24:02;98929.75;;;3.14;100.00
43436;BME280;36399;51.444;-2.018;2024-03-23T01:26:28;98913.25;;;3.11;100.00
43436;BME280;36399;51.444;-2.018;2024-03-23T01:28:54;98898.50;;;3.08;100.00
43436;BME280;36399;51.444;-2.018;2024-03-23T01:31:20;98866.75;;;3.20;100.00
43436;BME280;36399;51.444;-2.018;2024-03-23T01:33:46;98865.66;;;3.07;100.00
43436;BME280;36399;51.444;-2.018;2024-03-23T01:36:12;98844.88;;;3.04;100.00
43436;BME280;36399;51.444;-2.018;2024-03-23T01:38:38;98830.97;;;3.01;100.00
43436;BME280;36399;51.444;-2.018;2024-03-23T01:41:04;98824.91;;;2.99;100.00
43436;BME280;36399;51.444;-2.018;2024-03-23T01:43:30;98798.09;;;2.98;100.00
43436;BME280;36399;51.444;-2.018;2024-03-23T01:45:57;98781.56;;;2.90;100.00
43436;BME280;36399;51.444;-2.018;2024-03-23T01:48:22;98778.97;;;2.90;100.00
43436;BME280;36399;51.444;-2.018;2024-03-23T01:50:49;98750.41;;;2.87;100.00
43436;BME280;36399;51.444;-2.018;2024-03-23T01:53:15;98725.38;;;2.88;100.00
43436;BME280;36399;51.444;-2.018;2024-03-23T01:55:43;98695.22;;;2.93;100.00
43436;BME280;36399;51.444;-2.018;2024-03-23T01:58:09;98685.63;;;2.87;100.00
43436;BME280;36399;51.444;-2.018;2024-03-23T02:00:36;98650.53;;;3.10;100.00
43436;BME280;36399;51.444;-2.018;2024-03-23T02:03:02;98656.41;;;2.97;100.00
43436;BME280;36399;51.444;-2.018;2024-03-23T02:05:28;98637.47;;;3.04;100.00
43436;BME280;36399;51.444;-2.018;2024-03-23T02:07:55;98628.97;;;3.13;100.00
43436;BME280;36399;51.444;-2.018;2024-03-23T02:12:57;98620.16;;;3.00;100.00
43436;BME280;36399;51.444;-2.018;2024-03-23T02:15:23;98614.97;;;3.00;100.00
43436;BME280;36399;51.444;-2.018;2024-03-23T02:17:49;98596.78;;;2.97;100.00
43436;BME280;36399;51.444;-2.018;2024-03-23T02:20:14;98571.78;;;3.01;100.00
43436;BME280;36399;51.444;-2.018;2024-03-23T02:22:40;98553.59;;;2.98;100.00
43436;BME280;36399;51.444;-2.018;2024-03-23T02:25:06;98537.28;;;3.06;100.00
43436;BME280;36399;51.444;-2.018;2024-03-23T02:27:33;98520.88;;;3.09;100.00
43436;BME280;36399;51.444;-2.018;2024-03-23T02:30:00;98506.38;;;3.22;100.00
43436;BME280;36399;51.444;-2.018;2024-03-23T02:32:26;98503.78;;;3.22;100.00
43436;BME280;36399;51.444;-2.018;2024-03-23T02:34:52;98510.59;;;3.13;100.00
43436;BME280;36399;51.444;-2.018;2024-03-23T02:37:18;98501.13;;;3.15;100.00
43436;BME280;36399;51.444;-2.018;2024-03-23T02:39:46;98519.16;;;3.08;100.00
43436;BME280;36399;51.444;-2.018;2024-03-23T02:42:12;98512.22;;;3.05;100.00
43436;BME280;36399;51.444;-2.018;2024-03-23T02:44:38;98517.31;;;2.99;100.00
43436;BME280;36399;51.444;-2.018;2024-03-23T02:47:05;98516.44;;;2.97;100.00
43436;BME280;36399;51.444;-2.018;2024-03-23T02:49:31;98508.72;;;3.02;100.00
43436;BME280;36399;51.444;-2.018;2024-03-23T02:51:57;98518.06;;;2.88;100.00
43436;BME280;36399;51.444;-2.018;2024-03-23T02:54:23;98511.28;;;3.00;100.00
43436;BME280;36399;51.444;-2.018;2024-03-23T02:56:49;98507.84;;;3.03;100.00
43436;BME280;36399;51.444;-2.018;2024-03-23T02:59:15;98523.31;;;2.95;100.00
43436;BME280;36399;51.444;-2.018;2024-03-23T03:01:41;98503.53;;;3.02;100.00
43436;BME280;36399;51.444;-2.018;2024-03-23T03:04:06;98501.84;;;3.07;100.00
43436;BME280;36399;51.444;-2.018;2024-03-23T03:06:33;98507.00;;;3.02;100.00
43436;BME280;36399;51.444;-2.018;2024-03-23T03:08:59;98506.19;;;3.09;100.00
43436;BME280;36399;51.444;-2.018;2024-03-23T03:11:25;98516.53;;;3.06;100.00
43436;BME280;36399;51.444;-2.018;2024-03-23T03:13:51;98525.31;;;3.14;100.00
43436;BME280;36399;51.444;-2.018;2024-03-23T03:16:17;98533.84;;;3.07;100.00
43436;BME280;36399;51.444;-2.018;2024-03-23T03:18:43;98526.09;;;3.12;100.00
43436;BME280;36399;51.444;-2.018;2024-03-23T03:21:09;98526.94;;;3.09;100.00
43436;BME280;36399;51.444;-2.018;2024-03-23T03:23:39;98539.00;;;3.06;100.00
43436;BME280;36399;51.444;-2.018;2024-03-23T03:26:05;98533.06;;;3.13;100.00
43436;BME280;36399;51.444;-2.018;2024-03-23T03:28:32;98552.75;;;3.00;100.00
43436;BME280;36399;51.444;-2.018;2024-03-23T03:30:59;98548.47;;;3.02;100.00
43436;BME280;36399;51.444;-2.018;2024-03-23T03:33:26;98548.41;;;2.98;100.00
43436;BME280;36399;51.444;-2.018;2024-03-23T03:35:53;98552.75;;;3.00;100.00
43436;BME280;36399;51.444;-2.018;2024-03-23T03:38:19;98555.28;;;2.94;100.00
43436;BME280;36399;51.444;-2.018;2024-03-23T03:40:45;98575.00;;;2.83;100.00
43436;BME280;36399;51.444;-2.018;2024-03-23T03:43:11;98570.63;;;2.77;100.00
43436;BME280;36399;51.444;-2.018;2024-03-23T03:45:37;98558.56;;;2.79;100.00
43436;BME280;36399;51.444;-2.018;2024-03-23T03:48:04;98543.94;;;2.86;100.00
43436;BME280;36399;51.444;-2.018;2024-03-23T03:50:31;98542.22;;;2.85;100.00
43436;BME280;36399;51.444;-2.018;2024-03-23T03:52:57;98535.41;;;2.93;100.00
43436;BME280;36399;51.444;-2.018;2024-03-23T03:55:23;98535.41;;;2.95;100.00
43436;BME280;36399;51.444;-2.018;2024-03-23T03:57:49;98539.72;;;2.94;100.00
43436;BME280;36399;51.444;-2.018;2024-03-23T04:00:15;98551.84;;;2.97;100.00
43436;BME280;36399;51.444;-2.018;2024-03-23T04:02:41;98553.69;;;3.05;100.00
43436;BME280;36399;51.444;-2.018;2024-03-23T04:05:07;98560.63;;;3.09;100.00
43436;BME280;36399;51.444;-2.018;2024-03-23T04:07:34;98576.28;;;3.14;100.00
43436;BME280;36399;51.444;-2.018;2024-03-23T04:10:00;98604.63;;;3.03;100.00
43436;BME280;36399;51.444;-2.018;2024-03-23T04:12:26;98603.97;;;3.18;100.00
43436;BME280;36399;51.444;-2.018;2024-03-23T04:14:52;98635.75;;;3.05;100.00
43436;BME280;36399;51.444;-2.018;2024-03-23T04:17:18;98643.53;;;3.03;100.00
43436;BME280;36399;51.444;-2.018;2024-03-23T04:19:44;98647.03;;;3.07;100.00
43436;BME280;36399;51.444;-2.018;2024-03-23T04:22:10;98661.63;;;3.00;100.00
43436;BME280;36399;51.444;-2.018;2024-03-23T04:24:36;98659.81;;;2.93;100.00
43436;BME280;36399;51.444;-2.018;2024-03-23T04:27:02;98646.97;;;3.02;100.00
43436;BME280;36399;51.444;-2.018;2024-03-23T04:29:29;98657.31;;;3.01;100.00
43436;BME280;36399;51.444;-2.018;2024-03-23T04:31:55;98647.78;;;2.98;100.00
43436;BME280;36399;51.444;-2.018;2024-03-23T04:34:21;98652.97;;;2.98;100.00
43436;BME280;36399;51.444;-2.018;2024-03-23T04:36:48;98658.09;;;2.95;100.00
43436;BME280;36399;51.444;-2.018;2024-03-23T04:39:14;98649.56;;;3.02;100.00
43436;BME280;36399;51.444;-2.018;2024-03-23T04:41:40;98638.28;;;2.99;100.00
43436;BME280;36399;51.444;-2.018;2024-03-23T04:44:06;98642.53;;;2.95;100.00
43436;BME280;36399;51.444;-2.018;2024-03-23T04:46:33;98653.81;;;2.97;100.00
43436;BME280;36399;51.444;-2.018;2024-03-23T04:48:59;98648.69;;;3.02;100.00
43436;BME280;36399;51.444;-2.018;2024-03-23T04:51:25;98662.50;;;3.02;100.00
43436;BME280;36399;51.444;-2.018;2024-03-23T04:53:51;98656.47;;;3.03;100.00
43436;BME280;36399;51.444;-2.018;2024-03-23T04:56:17;98679.88;;;3.08;100.00
43436;BME280;36399;51.444;-2.018;2024-03-23T04:58:44;98688.50;;;3.07;100.00
43436;BME280;36399;51.444;-2.018;2024-03-23T05:01:13;98698.81;;;3.04;100.00
43436;BME280;36399;51.444;-2.018;2024-03-23T05:03:39;98706.63;;;3.05;100.00
43436;BME280;36399;51.444;-2.018;2024-03-23T05:06:05;98703.03;;;2.96;100.00
43436;BME280;36399;51.444;-2.018;2024-03-23T05:08:31;98709.84;;;2.89;100.00
43436;BME280;36399;51.444;-2.018;2024-03-23T05:10:57;98713.38;;;2.94;100.00
43436;BME280;36399;51.444;-2.018;2024-03-23T05:13:23;98698.00;;;3.06;100.00
43436;BME280;36399;51.444;-2.018;2024-03-23T05:15:53;98711.72;;;2.99;100.00
43436;BME280;36399;51.444;-2.018;2024-03-23T05:18:20;98721.88;;;2.84;100.00
43436;BME280;36399;51.444;-2.018;2024-03-23T05:20:46;98712.38;;;2.84;100.00
43436;BME280;36399;51.444;-2.018;2024-03-23T05:23:12;98712.56;;;2.97;100.00
43436;BME280;36399;51.444;-2.018;2024-03-23T05:25:38;98716.72;;;2.87;100.00
43436;BME280;36399;51.444;-2.018;2024-03-23T05:28:04;98719.38;;;2.92;100.00
43436;BME280;36399;51.444;-2.018;2024-03-23T05:30:31;98725.50;;;2.95;100.00
43436;BME280;36399;51.444;-2.018;2024-03-23T05:32:57;98723.78;;;2.97;100.00
43436;BME280;36399;51.444;-2.018;2024-03-23T05:35:23;98732.28;;;2.87;100.00
43436;BME280;36399;51.444;-2.018;2024-03-23T05:37:49;98740.84;;;2.83;100.00
43436;BME280;36399;51.444;-2.018;2024-03-23T05:40:15;98746.00;;;2.80;100.00
43436;BME280;36399;51.444;-2.018;2024-03-23T05:42:41;98752.88;;;2.79;100.00
43436;BME280;36399;51.444;-2.018;2024-03-23T05:45:08;98745.03;;;2.75;100.00
43436;BME280;36399;51.444;-2.018;2024-03-23T05:47:34;98743.28;;;2.72;100.00
43436;BME280;36399;51.444;-2.018;2024-03-23T05:50:00;98729.53;;;2.78;100.00
43436;BME280;36399;51.444;-2.018;2024-03-23T05:52:27;98727.00;;;2.81;100.00
43436;BME280;36399;51.444;-2.018;2024-03-23T05:54:53;98732.09;;;2.75;100.00
43436;BME280;36399;51.444;-2.018;2024-03-23T05:57:19;98735.34;;;2.62;100.00
43436;BME280;36399;51.444;-2.018;2024-03-23T05:59:46;98726.75;;;2.66;100.00
43436;BME280;36399;51.444;-2.018;2024-03-23T06:02:12;98717.28;;;2.68;100.00
43436;BME280;36399;51.444;-2.018;2024-03-23T06:04:38;98712.91;;;2.64;100.00
43436;BME280;36399;51.444;-2.018;2024-03-23T06:07:04;98704.28;;;2.65;100.00
43436;BME280;36399;51.444;-2.018;2024-03-23T06:09:32;98703.25;;;2.55;100.00
43436;BME280;36399;51.444;-2.018;2024-03-23T06:11:58;98696.41;;;2.59;100.00
43436;BME280;36399;51.444;-2.018;2024-03-23T06:14:24;98693.81;;;2.59;100.00
43436;BME280;36399;51.444;-2.018;2024-03-23T06:16:50;98683.44;;;2.59;100.00
43436;BME280;36399;51.444;-2.018;2024-03-23T06:19:16;98668.72;;;2.56;100.00
43436;BME280;36399;51.444;-2.018;2024-03-23T06:21:44;98647.38;;;2.69;100.00
43436;BME280;36399;51.444;-2.018;2024-03-23T06:24:11;98642.22;;;2.71;100.00
43436;BME280;36399;51.444;-2.018;2024-03-23T06:26:37;98644.09;;;2.81;100.00
43436;BME280;36399;51.444;-2.018;2024-03-23T06:29:04;98642.25;;;2.74;100.00
43436;BME280;36399;51.444;-2.018;2024-03-23T06:31:31;98651.84;;;2.81;100.00
43436;BME280;36399;51.444;-2.018;2024-03-23T06:33:57;98657.88;;;2.80;100.00
43436;BME280;36399;51.444;-2.018;2024-03-23T06:36:23;98648.53;;;2.91;100.00
43436;BME280;36399;51.444;-2.018;2024-03-23T06:38:49;98655.50;;;2.95;100.00
43436;BME280;36399;51.444;-2.018;2024-03-23T06:41:15;98656.44;;;3.00;100.00
43436;BME280;36399;51.444;-2.018;2024-03-23T06:43:41;98664.25;;;3.02;100.00
43436;BME280;36399;51.444;-2.018;2024-03-23T06:46:07;98667.03;;;3.15;100.00
43436;BME280;36399;51.444;-2.018;2024-03-23T06:48:33;98682.59;;;3.15;100.00
43436;BME280;36399;51.444;-2.018;2024-03-23T06:50:59;98698.25;;;3.22;100.00
43436;BME280;36399;51.444;-2.018;2024-03-23T06:53:25;98701.91;;;3.39;100.00
43436;BME280;36399;51.444;-2.018;2024-03-23T06:55:52;98718.50;;;3.52;100.00
43436;BME280;36399;51.444;-2.018;2024-03-23T06:58:23;98745.41;;;3.58;100.00
43436;BME280;36399;51.444;-2.018;2024-03-23T07:00:49;98751.56;;;3.65;100.00
43436;BME280;36399;51.444;-2.018;2024-03-23T07:03:18;98765.63;;;3.84;100.00
43436;BME280;36399;51.444;-2.018;2024-03-23T07:05:44;98797.78;;;3.95;100.00
43436;BME280;36399;51.444;-2.018;2024-03-23T07:08:12;98825.53;;;3.99;100.00
43436;BME280;36399;51.444;-2.018;2024-03-23T07:10:40;98843.69;;;3.97;100.00
43436;BME280;36399;51.444;-2.018;2024-03-23T07:13:06;98861.16;;;4.10;100.00
43436;BME280;36399;51.444;-2.018;2024-03-23T07:15:33;98886.41;;;4.19;100.00
43436;BME280;36399;51.444;-2.018;2024-03-23T07:17:59;98902.94;;;4.27;100.00
43436;BME280;36399;51.444;-2.018;2024-03-23T07:20:25;98926.41;;;4.33;100.00
43436;BME280;36399;51.444;-2.018;2024-03-23T07:22:51;98942.16;;;4.46;100.00
43436;BME280;36399;51.444;-2.018;2024-03-23T07:25:17;98977.69;;;4.48;100.00
43436;BME280;36399;51.444;-2.018;2024-03-23T07:27:43;99001.19;;;4.56;100.00
43436;BME280;36399;51.444;-2.018;2024-03-23T07:30:09;99035.94;;;4.64;100.00
43436;BME280;36399;51.444;-2.018;2024-03-23T07:32:35;99059.47;;;4.73;100.00
43436;BME280;36399;51.444;-2.018;2024-03-23T07:35:02;99092.47;;;4.79;100.00
43436;BME280;36399;51.444;-2.018;2024-03-23T07:37:28;99136.81;;;4.88;100.00
43436;BME280;36399;51.444;-2.018;2024-03-23T07:39:54;99172.44;;;4.95;100.00
43436;BME280;36399;51.444;-2.018;2024-03-23T07:42:20;99218.47;;;5.00;100.00
43436;BME280;36399;51.444;-2.018;2024-03-23T07:44:46;99234.22;;;5.10;100.00
43436;BME280;36399;51.444;-2.018;2024-03-23T07:47:12;99259.44;;;5.15;100.00
43436;BME280;36399;51.444;-2.018;2024-03-23T07:49:38;99289.03;;;5.20;100.00
43436;BME280;36399;51.444;-2.018;2024-03-23T07:52:05;99314.25;;;5.26;100.00
43436;BME280;36399;51.444;-2.018;2024-03-23T07:54:31;99334.38;;;5.36;100.00
43436;BME280;36399;51.444;-2.018;2024-03-23T07:56:57;99351.84;;;5.45;100.00
43436;BME280;36399;51.444;-2.018;2024-03-23T07:59:23;99368.53;;;5.57;100.00
43436;BME280;36399;51.444;-2.018;2024-03-23T08:01:51;99398.06;;;5.59;100.00
43436;BME280;36399;51.444;-2.018;2024-03-23T08:04:16;99441.53;;;5.65;100.00
43436;BME280;36399;51.444;-2.018;2024-03-23T08:06:42;99459.75;;;5.65;100.00
43436;BME280;36399;51.444;-2.018;2024-03-23T08:09:08;99465.84;;;5.65;100.00
43436;BME280;36399;51.444;-2.018;2024-03-23T08:11:34;99480.00;;;5.80;100.00
43436;BME280;36399;51.444;-2.018;2024-03-23T08:14:00;99511.47;;;5.92;100.00
43436;BME280;36399;51.444;-2.018;2024-03-23T08:16:27;99530.44;;;5.85;100.00
43436;BME280;36399;51.444;-2.018;2024-03-23T08:18:54;99552.97;;;5.83;100.00
43436;BME280;36399;51.444;-2.018;2024-03-23T08:21:23;99547.25;;;6.04;100.00
43436;BME280;36399;51.444;-2.018;2024-03-23T08:23:50;99571.97;;;6.25;100.00
43436;BME280;36399;51.444;-2.018;2024-03-23T08:26:17;99598.69;;;6.15;100.00
43436;BME280;36399;51.444;-2.018;2024-03-23T08:28:46;99619.50;;;6.14;100.00
43436;BME280;36399;51.444;-2.018;2024-03-23T08:31:12;99641.34;;;6.20;100.00
43436;BME280;36399;51.444;-2.018;2024-03-23T08:33:39;99678.63;;;6.16;100.00
43436;BME280;36399;51.444;-2.018;2024-03-23T08:36:07;99683.16;;;6.25;100.00
43436;BME280;36399;51.444;-2.018;2024-03-23T08:38:34;99690.13;;;6.26;100.00
43436;BME280;36399;51.444;-2.018;2024-03-23T08:41:04;99682.53;;;6.40;100.00
43436;BME280;36399;51.444;-2.018;2024-03-23T08:43:32;99718.19;;;6.41;100.00
43436;BME280;36399;51.444;-2.018;2024-03-23T08:46:09;99720.00;;;6.46;100.00
43436;BME280;36399;51.444;-2.018;2024-03-23T08:48:37;99750.63;;;6.58;100.00
43436;BME280;36399;51.444;-2.018;2024-03-23T08:51:04;99765.50;;;6.63;100.00
43436;BME280;36399;51.444;-2.018;2024-03-23T08:53:31;99780.41;;;6.71;100.00
43436;BME280;36399;51.444;-2.018;2024-03-23T08:55:58;99815.31;;;6.77;100.00
43436;BME280;36399;51.444;-2.018;2024-03-23T08:58:25;99841.41;;;6.77;100.00
43436;BME280;36399;51.444;-2.018;2024-03-23T09:00:52;99867.41;;;6.74;100.00
43436;BME280;36399;51.444;-2.018;2024-03-23T09:03:18;99884.75;;;6.72;100.00
43436;BME280;36399;51.444;-2.018;2024-03-23T09:05:44;99902.16;;;6.73;100.00
43436;BME280;36399;51.444;-2.018;2024-03-23T09:08:10;99922.84;;;6.62;100.00
43436;BME280;36399;51.444;-2.018;2024-03-23T09:10:40;99929.84;;;6.65;100.00
43436;BME280;36399;51.444;-2.018;2024-03-23T09:13:06;99945.09;;;6.89;100.00
43436;BME280;36399;51.444;-2.018;2024-03-23T09:15:37;99941.16;;;7.11;100.00
43436;BME280;36399;51.444;-2.018;2024-03-23T09:18:03;99959.72;;;7.27;100.00
43436;BME280;36399;51.444;-2.018;2024-03-23T09:20:33;99984.50;;;7.49;100.00
43436;BME280;36399;51.444;-2.018;2024-03-23T09:22:59;100018.63;;;7.58;100.00
43436;BME280;36399;51.444;-2.018;2024-03-23T09:25:25;100019.25;;;7.95;100.00
43436;BME280;36399;51.444;-2.018;2024-03-23T09:27:52;100026.31;;;8.01;100.00
43436;BME280;36399;51.444;-2.018;2024-03-23T09:30:18;100033.38;;;8.06;100.00
43436;BME280;36399;51.444;-2.018;2024-03-23T09:32:45;100035.38;;;8.22;100.00
43436;BME280;36399;51.444;-2.018;2024-03-23T09:35:11;100028.75;;;8.43;100.00
43436;BME280;36399;51.444;-2.018;2024-03-23T09:37:40;100021.84;;;8.46;100.00
43436;BME280;36399;51.444;-2.018;2024-03-23T09:40:10;100025.31;;;8.47;100.00
43436;BME280;36399;51.444;-2.018;2024-03-23T09:42:37;100042.88;;;8.56;100.00
43436;BME280;36399;51.444;-2.018;2024-03-23T09:45:11;100043.06;;;8.69;100.00
43436;BME280;36399;51.444;-2.018;2024-03-23T09:47:42;100045.81;;;8.78;100.00
43436;BME280;36399;51.444;-2.018;2024-03-23T09:50:09;100042.44;;;8.85;100.00
43436;BME280;36399;51.444;-2.018;2024-03-23T09:52:35;100040.69;;;8.86;100.00
43436;BME280;36399;51.444;-2.018;2024-03-23T09:55:01;100038.34;;;9.09;100.00
43436;BME280;36399;51.444;-2.018;2024-03-23T09:57:29;100035.66;;;9.01;100.00
43436;BME280;36399;51.444;-2.018;2024-03-23T09:59:55;100031.66;;;9.35;100.00
43436;BME280;36399;51.444;-2.018;2024-03-23T10:02:24;100021.34;;;9.47;100.00
43436;BME280;36399;51.444;-2.018;2024-03-23T10:04:50;100038.25;;;9.00;100.00
43436;BME280;36399;51.444;-2.018;2024-03-23T10:07:19;100031.47;;;9.17;100.00
43436;BME280;36399;51.444;-2.018;2024-03-23T10:09:46;100027.91;;;9.12;100.00
43436;BME280;36399;51.444;-2.018;2024-03-23T10:12:18;100026.53;;;9.41;100.00
43436;BME280;36399;51.444;-2.018;2024-03-23T10:14:44;100024.81;;;9.46;100.00
43436;BME280;36399;51.444;-2.018;2024-03-23T10:17:21;100031.25;;;8.99;100.00
43436;BME280;36399;51.444;-2.018;2024-03-23T10:19:56;100024.13;;;8.85;100.00
43436;BME280;36399;51.444;-2.018;2024-03-23T10:22:23;100025.69;;;8.74;100.00
43436;BME280;36399;51.444;-2.018;2024-03-23T10:24:50;100036.25;;;8.80;100.00
43436;BME280;36399;51.444;-2.018;2024-03-23T10:27:18;100037.81;;;8.66;100.00
43436;BME280;36399;51.444;-2.018;2024-03-23T10:29:48;100073.75;;;8.23;100.00
43436;BME280;36399;51.444;-2.018;2024-03-23T10:32:15;100132.69;;;7.16;100.00
43436;BME280;36399;51.444;-2.018;2024-03-23T10:34:42;100108.75;;;6.21;100.00
43436;BME280;36399;51.444;-2.018;2024-03-23T10:37:09;99916.16;;;6.33;100.00
43436;BME280;36399;51.444;-2.018;2024-03-23T10:39:37;99732.72;;;6.78;100.00
43436;BME280;36399;51.444;-2.018;2024-03-23T10:42:05;99573.84;;;7.70;100.00
43436;BME280;36399;51.444;-2.018;2024-03-23T10:44:32;99552.31;;;7.94;100.00
43436;BME280;36399;51.444;-2.018;2024-03-23T10:46:58;99628.00;;;7.83;100.00
43436;BME280;36399;51.444;-2.018;2024-03-23T10:49:29;99702.66;;;7.65;100.00
43436;BME280;36399;51.444;-2.018;2024-03-23T10:51:57;99732.03;;;7.47;100.00
43436;BME280;36399;51.444;-2.018;2024-03-23T10:54:25;99726.94;;;7.57;100.00
43436;BME280;36399;51.444;-2.018;2024-03-23T10:57:15;99693.78;;;8.31;100.00
43436;BME280;36399;51.444;-2.018;2024-03-23T10:59:42;99734.38;;;8.78;100.00
43436;BME280;36399;51.444;-2.018;2024-03-23T11:02:18;99816.97;;;9.44;100.00
43436;BME280;36399;51.444;-2.018;2024-03-23T11:04:45;99936.63;;;9.47;100.00
43436;BME280;36399;51.444;-2.018;2024-03-23T11:07:30;99978.34;;;9.30;100.00
43436;BME280;36399;51.444;-2.018;2024-03-23T11:10:00;99971.66;;;9.58;100.00
43436;BME280;36399;51.444;-2.018;2024-03-23T11:12:31;100029.78;;;9.24;100.00
43436;BME280;36399;51.444;-2.018;2024-03-23T11:15:10;100028.94;;;9.25;100.00
43436;BME280;36399;51.444;-2.018;2024-03-23T11:17:37;100022.03;;;9.34;100.00
43436;BME280;36399;51.444;-2.018;2024-03-23T11:20:04;100007.84;;;10.00;100.00
43436;BME280;36399;51.444;-2.018;2024-03-23T11:23:00;100010.16;;;9.67;100.00
43436;BME280;36399;51.444;-2.018;2024-03-23T11:25:28;100041.81;;;9.05;100.00
43436;BME280;36399;51.444;-2.018;2024-03-23T11:28:06;100072.38;;;8.44;100.00
43436;BME280;36399;51.444;-2.018;2024-03-23T11:30:34;100057.81;;;7.58;100.00
43436;BME280;36399;51.444;-2.018;2024-03-23T11:33:02;100024.44;;;6.99;100.00
43436;BME280;36399;51.444;-2.018;2024-03-23T11:38:16;99877.69;;;5.84;100.00
43436;BME280;36399;51.444;-2.018;2024-03-23T11:40:47;99733.66;;;5.10;100.00
43436;BME280;36399;51.444;-2.018;2024-03-23T11:43:14;99576.44;;;4.95;100.00
43436;BME280;36399;51.444;-2.018;2024-03-23T11:45:44;99434.09;;;4.87;100.00
43436;BME280;36399;51.444;-2.018;2024-03-23T11:48:16;99289.53;;;4.99;100.00
43436;BME280;36399;51.444;-2.018;2024-03-23T11:50:46;99138.53;;;5.54;100.00
43436;BME280;36399;51.444;-2.018;2024-03-23T11:58:07;99125.41;;;7.78;100.00
43436;BME280;36399;51.444;-2.018;2024-03-23T12:00:34;99204.91;;;8.55;100.00
43436;BME280;36399;51.444;-2.018;2024-03-23T12:03:04;99317.47;;;9.13;100.00
43436;BME280;36399;51.444;-2.018;2024-03-23T12:05:31;99462.41;;;9.88;100.00
43436;BME280;36399;51.444;-2.018;2024-03-23T12:08:20;99673.16;;;10.22;100.00
43436;BME280;36399;51.444;-2.018;2024-03-23T12:11:11;99819.28;;;10.55;100.00
43436;BME280;36399;51.444;-2.018;2024-03-23T12:13:38;99871.81;;;10.64;100.00
43436;BME280;36399;51.444;-2.018;2024-03-23T12:16:14;99921.66;;;10.60;100.00
43436;BME280;36399;51.444;-2.018;2024-03-23T12:18:42;99937.25;;;10.34;100.00
43436;BME280;36399;51.444;-2.018;2024-03-23T12:21:09;99956.97;;;9.80;100.00
43436;BME280;36399;51.444;-2.018;2024-03-23T12:23:35;99958.63;;;9.66;100.00
43436;BME280;36399;51.444;-2.018;2024-03-23T12:26:01;99947.31;;;9.73;100.00
43436;BME280;36399;51.444;-2.018;2024-03-23T12:28:28;99946.59;;;9.89;100.00
43436;BME280;36399;51.444;-2.018;2024-03-23T12:30:54;99949.72;;;9.45;100.00
43436;BME280;36399;51.444;-2.018;2024-03-23T12:33:21;99954.03;;;9.40;100.00
43436;BME280;36399;51.444;-2.018;2024-03-23T12:35:48;99921.16;;;9.80;100.00
43436;BME280;36399;51.444;-2.018;2024-03-23T12:38:14;99920.50;;;10.10;100.00
43436;BME280;36399;51.444;-2.018;2024-03-23T12:40:40;99936.38;;;10.29;100.00
43436;BME280;36399;51.444;-2.018;2024-03-23T12:43:07;99953.06;;;10.41;100.00
43436;BME280;36399;51.444;-2.018;2024-03-23T12:45:36;99953.16;;;10.60;100.00
43436;BME280;36399;51.444;-2.018;2024-03-23T12:48:02;99945.25;;;10.55;100.00
43436;BME280;36399;51.444;-2.018;2024-03-23T12:50:28;99940.06;;;10.72;100.00
43436;BME280;36399;51.444;-2.018;2024-03-23T12:52:54;99925.19;;;10.72;100.00
43436;BME280;36399;51.444;-2.018;2024-03-23T12:55:20;99907.84;;;11.42;100.00
43436;BME280;36399;51.444;-2.018;2024-03-23T12:57:47;99859.66;;;11.87;100.00
43436;BME280;36399;51.444;-2.018;2024-03-23T13:00:13;99522.06;;;11.94;100.00
43436;BME280;36399;51.444;-2.018;2024-03-23T13:02:41;98381.56;;;11.97;100.00
43436;BME280;36399;51.444;-2.018;2024-03-23T13:05:07;98808.22;;;11.09;100.00
43436;BME280;36399;51.444;-2.018;2024-03-23T13:07:34;98874.16;;;10.86;100.00
43436;BME280;36399;51.444;-2.018;2024-03-23T13:10:01;98871.94;;;10.57;100.00
43436;BME280;36399;51.444;-2.018;2024-03-23T13:12:28;98862.50;;;10.42;100.00
43436;BME280;36399;51.444;-2.018;2024-03-23T13:14:54;98865.78;;;10.59;100.00
43436;BME280;36399;51.444;-2.018;2024-03-23T13:17:19;98858.41;;;10.86;100.00
43436;BME280;36399;51.444;-2.018;2024-03-23T13:19:45;98912.56;;;10.96;100.00
43436;BME280;36399;51.444;-2.018;2024-03-23T13:22:11;98858.75;;;11.23;100.00
43436;BME280;36399;51.444;-2.018;2024-03-23T13:24:38;98863.50;;;11.55;100.00
43436;BME280;36399;51.444;-2.018;2024-03-23T13:27:04;98976.28;;;11.70;100.00
43436;BME280;36399;51.444;-2.018;2024-03-23T13:29:34;98996.66;;;11.56;100.00
43436;BME280;36399;51.444;-2.018;2024-03-23T13:32:06;99127.28;;;11.48;100.00
43436;BME280;36399;51.444;-2.018;2024-03-23T13:34:32;99288.78;;;11.13;100.00
43436;BME280;36399;51.444;-2.018;2024-03-23T13:37:01;99307.78;;;11.43;100.00
43436;BME280;36399;51.444;-2.018;2024-03-23T13:39:27;99413.19;;;10.92;100.00
43436;BME280;36399;51.444;-2.018;2024-03-23T13:41:53;99409.06;;;11.86;100.00
43436;BME280;36399;51.444;-2.018;2024-03-23T13:44:21;99428.25;;;11.94;100.00
43436;BME280;36399;51.444;-2.018;2024-03-23T13:46:47;99488.25;;;11.37;100.00
43436;BME280;36399;51.444;-2.018;2024-03-23T13:49:33;99519.91;;;11.18;100.00
43436;BME280;36399;51.444;-2.018;2024-03-23T13:52:00;99520.88;;;10.95;100.00